| Date | Time | Temp. (oF) | Dew Point (oF) | Rel. Hum. (%) | Press. (in.) | Wind Dir. | Wind Speed (mph) | Hourly Rainfall (in.) |
|
|---|---|---|---|---|---|---|---|---|---|
| 1 | 02/18 | 00:00 | 10 | 7 | 91 | 29.95 | WNW | 0 | 0.00 |
| 2 | 02/17 | 23:00 | 11 | 8 | 88 | 29.94 | SSW | 0 | 0.00 |
| 3 | 02/17 | 22:00 | 13 | 9 | 86 | 29.93 | SSW | 0 | 0.00 |
| 4 | 02/17 | 21:00 | 14 | 9 | 81 | 29.92 | W | 0 | 0.00 |
| 5 | 02/17 | 20:00 | 15 | 8 | 74 | 29.91 | SSW | 0 | 0.00 |
| 6 | 02/17 | 19:00 | 18 | 8 | 67 | 29.90 | W | 0 | 0.00 |
| 7 | 02/17 | 18:00 | 21 | 9 | 60 | 29.88 | SSW | 0 | 0.00 |
| 8 | 02/17 | 17:00 | 22 | 9 | 57 | 29.84 | N | 2 | 0.00 |
| 9 | 02/17 | 16:00 | 23 | 11 | 62 | 29.85 | NNW | 8 | 0.00 |
| 10 | 02/17 | 15:00 | 22 | 11 | 63 | 29.85 | NW | 8 | 0.00 |
| 11 | 02/17 | 14:00 | 20 | 11 | 69 | 29.85 | WNW | 1 | 0.00 |
| 12 | 02/17 | 13:00 | 19 | 10 | 69 | 29.88 | NNW | 7 | 0.00 |
| 13 | 02/17 | 12:00 | 18 | 11 | 74 | 29.90 | NNW | 7 | 0.00 |
| 14 | 02/17 | 11:00 | 17 | 10 | 75 | 29.90 | NW | 5 | 0.00 |
| 15 | 02/17 | 10:00 | 12 | 8 | 84 | 29.91 | NNE | 4 | 0.00 |
| 16 | 02/17 | 09:00 | 10 | 7 | 90 | 29.92 | NNW | 4 | 0.00 |
| 17 | 02/17 | 08:00 | 9 | 7 | 94 | 29.92 | N | 5 | 0.00 |
| 18 | 02/17 | 07:00 | 9 | 7 | 94 | 29.90 | N | 2 | 0.00 |
| 19 | 02/17 | 06:00 | 9 | 7 | 94 | 29.91 | ENE | 2 | 0.00 |
| 20 | 02/17 | 05:00 | 9 | 7 | 94 | 29.92 | ENE | 0 | 0.00 |
| 21 | 02/17 | 04:00 | 9 | 7 | 94 | 29.91 | ENE | 2 | 0.00 |
| 22 | 02/17 | 03:00 | 9 | 7 | 94 | 29.94 | E | 2 | 0.01 |
| 23 | 02/17 | 02:00 | 9 | 7 | 93 | 29.98 | E | 4 | 0.01 |
| 24 | 02/17 | 01:00 | 9 | 7 | 93 | 30.01 | E | 0 | 0.01 |